Terminal Aerodrome Forecast
Issued by NWS Cleveland, OH

Home | Current Version | Previous Version | Graphics & Text | Print | Product List | Glossary Off
Versions: 1 2 3 4 5 6 7 8 9 10 11 12 13 14 15 16 17 18 19 20

000
FTUS41 KCLE 070539
TAFERI
TAF
KERI 070539Z 0706/0806 23012G20KT 4SM BR OVC008
      TEMPO 0706/0710 6SM BR OVC010
     FM071000 23015G25KT P6SM OVC012
     FM071500 23012G20KT P6SM OVC035=

USA.gov is the U.S. government's official web portal to all federal, state and local government web resources and services.